createdAt,value
2022-09-12T00:01:06.940Z,5.17
2022-09-12T00:04:12.830Z,4.40
2022-09-12T00:07:16.783Z,5.00
2022-09-12T00:10:21.131Z,3.97
2022-09-12T00:13:26.107Z,4.13
2022-09-12T00:16:32.679Z,4.80
2022-09-12T00:19:36.327Z,4.80
2022-09-12T00:22:39.943Z,5.30
2022-09-12T00:25:45.030Z,4.70
2022-09-12T00:28:50.658Z,4.73
2022-09-12T00:31:54.363Z,5.67
2022-09-12T00:34:57.975Z,5.90
2022-09-12T00:38:01.595Z,5.50
2022-09-12T00:41:05.424Z,5.47
2022-09-12T00:44:48.277Z,5.07
2022-09-12T00:47:51.988Z,5.83
2022-09-12T00:50:55.779Z,5.80
2022-09-12T00:54:04.039Z,5.77
2022-09-12T00:57:11.784Z,5.10
2022-09-12T01:00:20.898Z,4.50
2022-09-12T01:03:26.465Z,4.37
2022-09-12T01:06:36.695Z,3.90
2022-09-12T01:09:43.220Z,4.37
2022-09-12T01:12:47.615Z,4.50
2022-09-12T01:15:54.336Z,4.93
2022-09-12T01:19:26.658Z,3.77
2022-09-12T01:23:02.550Z,4.70
2022-09-12T01:26:27.672Z,4.20
2022-09-12T01:30:07.188Z,5.40
2022-09-12T01:33:41.142Z,5.53
2022-09-12T01:37:00.480Z,5.43
2022-09-12T01:40:16.677Z,4.80
2022-09-12T01:43:31.918Z,4.87
2022-09-12T01:46:46.777Z,5.10
2022-09-12T01:50:01.606Z,4.70
2022-09-12T01:53:14.786Z,4.43
2022-09-12T01:56:25.043Z,4.90
2022-09-12T01:59:36.085Z,4.53
2022-09-12T02:02:50.728Z,4.33
2022-09-12T02:06:04.305Z,4.47
2022-09-12T02:09:16.119Z,4.20
2022-09-12T02:12:26.928Z,4.47
2022-09-12T02:15:38.999Z,4.40
2022-09-12T02:18:51.843Z,4.30
2022-09-12T02:22:01.377Z,4.57
2022-09-12T02:25:10.614Z,4.60
2022-09-12T02:28:22.796Z,4.43
2022-09-12T02:31:35.023Z,4.23
2022-09-12T02:34:49.822Z,5.27
2022-09-12T02:38:03.584Z,7.07
2022-09-12T02:41:07.445Z,6.07
2022-09-12T02:44:11.403Z,5.53
2022-09-12T02:47:26.450Z,4.80
2022-09-12T02:50:30.435Z,5.17
2022-09-12T02:53:37.003Z,5.80
2022-09-12T02:56:45.811Z,6.00
2022-09-12T02:59:54.504Z,5.37
2022-09-12T03:03:40.180Z,4.77
2022-09-12T03:07:02.472Z,5.07
2022-09-12T03:10:24.163Z,5.10
2022-09-12T03:13:44.837Z,5.40
2022-09-12T03:17:01.717Z,5.00
2022-09-12T03:20:12.846Z,4.67
2022-09-12T03:23:31.163Z,5.03
2022-09-12T03:26:44.669Z,5.07
2022-09-12T03:29:49.899Z,4.40
2022-09-12T03:32:56.063Z,6.17
2022-09-12T03:35:59.747Z,6.60
2022-09-12T03:39:03.282Z,7.97
2022-09-12T03:42:08.350Z,8.77
2022-09-12T03:45:13.182Z,8.70
2022-09-12T03:48:16.930Z,8.20
2022-09-12T03:51:20.915Z,8.30
2022-09-12T03:54:24.659Z,8.33
2022-09-12T03:57:29.813Z,8.80
2022-09-12T04:00:33.493Z,8.60
2022-09-12T04:03:37.075Z,8.73
2022-09-12T04:06:41.686Z,8.47
2022-09-12T04:09:45.566Z,8.17
2022-09-12T04:12:50.599Z,8.27
2022-09-12T04:16:01.586Z,7.33
2022-09-12T04:19:05.343Z,7.93
2022-09-12T04:22:08.964Z,7.87
2022-09-12T04:25:13.430Z,6.93
2022-09-12T04:28:18.379Z,6.30
2022-09-12T04:31:23.585Z,6.90
2022-09-12T04:34:31.784Z,6.63
2022-09-12T04:37:35.587Z,6.27
2022-09-12T04:40:39.362Z,7.00
2022-09-12T04:43:46.565Z,6.60
2022-09-12T04:46:50.622Z,6.40
2022-09-12T04:49:54.232Z,6.73
2022-09-12T04:52:58.150Z,7.87
2022-09-12T04:56:04.714Z,8.23
2022-09-12T04:59:11.988Z,7.93
2022-09-12T05:02:16.403Z,7.97
2022-09-12T05:05:20.126Z,9.03
2022-09-12T05:08:23.757Z,9.40
2022-09-12T05:11:53.021Z,9.40
2022-09-12T05:14:55.931Z,9.23
2022-09-12T05:17:59.517Z,9.53
2022-09-12T05:21:05.308Z,8.70
2022-09-12T05:24:09.011Z,9.33
2022-09-12T05:27:12.551Z,8.37
2022-09-12T05:30:17.666Z,8.53
2022-09-12T05:33:24.994Z,8.07
2022-09-12T05:36:32.442Z,8.60
2022-09-12T05:39:35.984Z,7.90
2022-09-12T05:42:39.568Z,8.33
2022-09-12T05:45:45.200Z,9.00
2022-09-12T05:48:55.628Z,8.63
2022-09-12T05:51:59.828Z,7.87
2022-09-12T05:55:03.459Z,7.60
2022-09-12T05:58:07.473Z,7.27
2022-09-12T06:01:16.016Z,8.13
2022-09-12T06:04:19.754Z,6.97
2022-09-12T06:07:23.390Z,7.37
2022-09-12T06:10:27.091Z,7.87
2022-09-12T06:13:33.135Z,7.63
2022-09-12T06:16:38.698Z,8.03
2022-09-12T06:19:42.363Z,8.53
2022-09-12T06:22:45.963Z,9.77
2022-09-12T06:25:50.640Z,10.17
2022-09-12T06:29:10.303Z,10.57
2022-09-12T06:32:15.502Z,10.43
2022-09-12T06:35:19.206Z,10.20
2022-09-12T06:38:22.854Z,10.33
2022-09-12T06:41:27.186Z,9.97
2022-09-12T06:44:31.681Z,12.47
2022-09-12T06:47:37.258Z,10.73
2022-09-12T06:50:40.775Z,11.77
2022-09-12T06:53:46.093Z,11.30
2022-09-12T06:56:49.964Z,11.67
2022-09-12T06:59:53.528Z,12.50
2022-09-12T07:02:58.639Z,11.97
2022-09-12T07:06:06.340Z,12.53
2022-09-12T07:09:13.821Z,12.63
2022-09-12T07:12:17.471Z,12.03
2022-09-12T07:15:31.787Z,12.83
2022-09-12T07:18:39.167Z,13.33
2022-09-12T07:21:43.159Z,12.97
2022-09-12T07:24:47.755Z,12.90
2022-09-12T07:27:51.420Z,12.73
2022-09-12T07:30:56.071Z,12.43
2022-09-12T07:34:01.087Z,13.67
2022-09-12T07:37:05.047Z,13.77
2022-09-12T07:40:10.480Z,13.43
2022-09-12T07:43:14.303Z,14.20
2022-09-12T07:46:18.127Z,14.23
2022-09-12T07:49:23.130Z,14.03
2022-09-12T07:52:26.775Z,14.70
2022-09-12T07:55:30.886Z,14.10
2022-09-12T07:58:36.928Z,15.07
2022-09-12T08:01:41.649Z,14.20
2022-09-12T08:04:48.387Z,15.00
2022-09-12T08:07:55.799Z,16.00
2022-09-12T08:11:02.627Z,16.60
2022-09-12T08:14:06.730Z,17.03
2022-09-12T08:17:10.727Z,17.70
2022-09-12T08:20:15.935Z,17.40
2022-09-12T08:23:21.871Z,17.73
2022-09-12T08:26:25.889Z,17.63
2022-09-12T08:29:29.607Z,18.07
2022-09-12T08:32:33.187Z,18.60
2022-09-12T08:35:38.193Z,18.93
2022-09-12T08:38:44.324Z,17.97
2022-09-12T08:41:51.350Z,17.37
2022-09-12T08:45:18.032Z,17.40
2022-09-12T08:48:21.687Z,16.77
2022-09-12T08:51:27.166Z,17.03
2022-09-12T08:54:33.613Z,16.63
2022-09-12T08:57:37.266Z,16.27
2022-09-12T09:00:52.290Z,15.57
2022-09-12T09:04:20.649Z,16.77
2022-09-12T09:07:55.681Z,16.37
2022-09-12T09:11:12.792Z,16.03
2022-09-12T09:14:50.830Z,16.50
2022-09-12T09:18:00.486Z,17.00
2022-09-12T09:21:13.603Z,16.00
2022-09-12T09:24:26.064Z,17.53
2022-09-12T09:27:40.760Z,16.43
2022-09-12T09:30:46.037Z,16.70
2022-09-12T09:33:54.172Z,15.77
2022-09-12T09:37:09.100Z,15.87
2022-09-12T09:40:25.604Z,15.70
2022-09-12T09:43:29.576Z,14.87
2022-09-12T09:46:34.495Z,14.00
2022-09-12T09:49:38.232Z,15.30
2022-09-12T09:52:42.317Z,15.90
2022-09-12T09:55:47.907Z,13.30
2022-09-12T09:58:51.651Z,14.73
2022-09-12T10:02:02.234Z,13.97
2022-09-12T10:05:06.424Z,14.37
2022-09-12T10:08:11.385Z,13.47
2022-09-12T10:11:26.945Z,14.70
2022-09-12T10:14:41.148Z,13.50
2022-09-12T10:17:47.932Z,12.07
2022-09-12T10:20:51.767Z,13.67
2022-09-12T10:24:05.310Z,12.83
2022-09-12T10:27:18.902Z,12.53
2022-09-12T10:30:25.242Z,12.23
2022-09-12T10:33:31.679Z,12.53
2022-09-12T10:36:41.058Z,13.50
2022-09-12T10:39:54.591Z,12.80
2022-09-12T10:43:19.185Z,14.05
2022-09-12T10:46:29.631Z,14.17
2022-09-12T10:49:38.708Z,12.70
2022-09-12T10:52:42.373Z,12.00
2022-09-12T10:56:09.615Z,11.60
2022-09-12T10:59:29.072Z,10.73
2022-09-12T11:02:50.804Z,11.07
2022-09-12T11:06:00.060Z,11.00
2022-09-12T11:09:16.087Z,11.73
2022-09-12T11:12:34.015Z,9.23
2022-09-12T11:15:57.929Z,8.77
2022-09-12T11:19:23.206Z,7.93
2022-09-12T11:22:45.642Z,8.13
2022-09-12T11:26:01.177Z,6.70
2022-09-12T11:29:22.183Z,7.70
2022-09-12T11:33:08.255Z,6.37
2022-09-12T11:36:28.998Z,5.60
2022-09-12T11:39:40.522Z,4.87
2022-09-12T11:42:47.575Z,4.77
2022-09-12T11:45:52.990Z,4.10
2022-09-12T11:49:05.584Z,4.17
2022-09-12T11:52:18.034Z,4.43
2022-09-12T11:55:29.849Z,4.27
2022-09-12T11:58:34.016Z,3.77
2022-09-12T12:01:48.574Z,4.07
2022-09-12T12:05:17.209Z,3.70
2022-09-12T12:08:23.760Z,3.70
2022-09-12T12:11:33.950Z,3.37
2022-09-12T12:14:44.400Z,3.17
2022-09-12T12:18:02.503Z,3.03
2022-09-12T12:21:37.378Z,3.30
2022-09-12T12:25:11.148Z,3.30
2022-09-12T12:29:01.666Z,3.70
2022-09-12T12:32:26.206Z,3.03
2022-09-12T12:35:42.653Z,2.93
2022-09-12T12:38:47.776Z,2.67
2022-09-12T12:41:51.434Z,2.57
2022-09-12T12:44:54.997Z,2.57
2022-09-12T12:48:10.188Z,2.33
2022-09-12T12:52:02.545Z,2.57
2022-09-12T12:55:17.017Z,2.50
2022-09-12T12:58:34.646Z,2.70
2022-09-12T13:01:41.161Z,1.73
2022-09-12T13:04:47.056Z,2.00
2022-09-12T13:07:59.223Z,2.10
2022-09-12T13:11:10.971Z,2.03
2022-09-12T13:14:38.773Z,2.00
2022-09-12T13:17:44.882Z,2.00
2022-09-12T13:20:54.972Z,2.10
2022-09-12T13:24:03.974Z,1.83
2022-09-12T13:27:21.150Z,1.80
2022-09-12T13:30:24.731Z,2.10
2022-09-12T13:33:37.679Z,2.07
2022-09-12T13:37:25.410Z,1.90
2022-09-12T13:40:47.043Z,1.47
2022-09-12T13:43:52.708Z,1.30
2022-09-12T13:47:01.631Z,1.40
2022-09-12T13:50:08.683Z,1.60
2022-09-12T13:53:19.227Z,1.63
2022-09-12T13:56:23.551Z,1.63
2022-09-12T13:59:28.771Z,1.40
2022-09-12T14:02:37.615Z,1.50
2022-09-12T14:05:45.102Z,1.50
2022-09-12T14:08:49.115Z,1.73
2022-09-12T14:11:53.830Z,1.37
2022-09-12T14:14:59.299Z,1.30
2022-09-12T14:18:05.703Z,1.30
2022-09-12T14:21:13.308Z,1.30
2022-09-12T14:24:17.110Z,1.40
2022-09-12T14:27:25.858Z,1.47
2022-09-12T14:30:34.090Z,1.50
2022-09-12T14:33:50.260Z,1.30
2022-09-12T14:36:57.277Z,1.30
2022-09-12T14:40:01.486Z,1.43
2022-09-12T14:43:05.270Z,1.40
2022-09-12T14:46:20.585Z,1.53
2022-09-12T14:49:32.595Z,1.57
2022-09-12T14:52:36.476Z,1.30
2022-09-12T14:55:47.441Z,1.33
2022-09-12T14:58:51.822Z,1.80
2022-09-12T15:02:27.302Z,2.27
2022-09-12T15:05:31.367Z,1.47
2022-09-12T15:08:35.406Z,1.70
2022-09-12T15:11:38.951Z,1.60
2022-09-12T15:14:42.601Z,1.73
2022-09-12T15:17:48.086Z,1.80
2022-09-12T15:20:55.152Z,1.77
2022-09-12T15:23:58.751Z,1.57
2022-09-12T15:27:02.340Z,1.30
2022-09-12T15:30:07.272Z,1.80
2022-09-12T15:33:13.072Z,1.60
2022-09-12T15:36:20.118Z,1.80
2022-09-12T15:39:23.733Z,2.10
2022-09-12T15:42:31.438Z,1.80
2022-09-12T15:45:45.375Z,1.47
2022-09-12T15:48:51.192Z,1.80
2022-09-12T15:51:54.785Z,1.63
2022-09-12T15:54:58.492Z,1.77
2022-09-12T15:58:06.886Z,1.53
2022-09-12T16:01:13.260Z,2.07
2022-09-12T16:04:25.355Z,1.63
2022-09-12T16:07:29.957Z,1.77
2022-09-12T16:10:33.595Z,1.80
2022-09-12T16:13:37.187Z,1.80
2022-09-12T16:16:40.931Z,1.90
2022-09-12T16:19:45.846Z,2.17
2022-09-12T16:22:49.961Z,1.77
2022-09-12T16:26:00.443Z,1.80
2022-09-12T16:29:04.251Z,1.93
2022-09-12T16:32:08.116Z,1.80
2022-09-12T16:35:13.203Z,2.30
2022-09-12T16:38:17.085Z,2.30
2022-09-12T16:41:24.744Z,3.03
2022-09-12T16:44:28.342Z,1.70
2022-09-12T16:47:32.538Z,2.23
2022-09-12T16:50:37.545Z,2.03
2022-09-12T16:53:41.580Z,2.10
2022-09-12T16:56:46.747Z,1.83
2022-09-12T16:59:50.786Z,2.03
2022-09-12T17:02:54.355Z,2.20
2022-09-12T17:06:04.976Z,2.03
2022-09-12T17:09:10.641Z,2.20
2022-09-12T17:12:14.273Z,2.30
2022-09-12T17:15:38.705Z,2.50
2022-09-12T17:18:42.946Z,2.30
2022-09-12T17:21:48.902Z,2.10
2022-09-12T17:24:52.437Z,2.47
2022-09-12T17:27:56.021Z,2.43
2022-09-12T17:31:02.652Z,2.77
2022-09-12T17:34:06.210Z,2.73
2022-09-12T17:37:11.188Z,2.90
2022-09-12T17:40:14.773Z,4.20
2022-09-12T17:43:44.002Z,4.57
2022-09-12T17:46:47.765Z,3.00
2022-09-12T17:49:52.063Z,2.80
2022-09-12T17:52:57.739Z,3.60
2022-09-12T17:56:04.523Z,3.77
2022-09-12T17:59:11.912Z,2.93
2022-09-12T18:02:16.121Z,4.60
2022-09-12T18:05:19.779Z,3.70
2022-09-12T18:08:26.296Z,3.47
2022-09-12T18:11:30.100Z,3.03
2022-09-12T18:14:33.727Z,2.63
2022-09-12T18:17:37.284Z,2.70
2022-09-12T18:20:40.991Z,2.87
2022-09-12T18:23:46.037Z,3.20
2022-09-12T18:26:49.957Z,2.70
2022-09-12T18:30:17.236Z,2.60
2022-09-12T18:33:20.766Z,2.67
2022-09-12T18:36:26.962Z,2.20
2022-09-12T18:39:32.031Z,2.67
2022-09-12T18:42:35.632Z,2.70
2022-09-12T18:45:39.294Z,6.33
2022-09-12T18:48:46.946Z,4.33
2022-09-12T18:51:50.574Z,4.73
2022-09-12T18:54:55.538Z,3.20
2022-09-12T18:57:59.106Z,2.80
2022-09-12T19:01:11.322Z,3.20
2022-09-12T19:04:16.523Z,2.60
2022-09-12T19:07:20.163Z,2.90
2022-09-12T19:10:25.691Z,3.00
2022-09-12T19:13:29.461Z,3.00
2022-09-12T19:16:33.695Z,3.00
2022-09-12T19:19:40.483Z,2.83
2022-09-12T19:22:44.347Z,3.37
2022-09-12T19:25:58.910Z,3.10
2022-09-12T19:29:03.072Z,3.13
2022-09-12T19:32:06.871Z,2.83
2022-09-12T19:35:12.858Z,2.93
2022-09-12T19:38:17.280Z,2.97
2022-09-12T19:41:22.372Z,3.40
2022-09-12T19:44:27.627Z,2.80
2022-09-12T19:47:31.322Z,2.73
2022-09-12T19:50:34.877Z,3.23
2022-09-12T19:53:38.509Z,3.07
2022-09-12T19:56:43.833Z,2.90
2022-09-12T19:59:48.085Z,3.20
2022-09-12T20:02:52.805Z,3.40
2022-09-12T20:06:20.476Z,2.80
2022-09-12T20:09:24.027Z,3.60
2022-09-12T20:12:29.164Z,3.30
2022-09-12T20:15:45.392Z,3.17
2022-09-12T20:18:49.824Z,2.90
2022-09-12T20:21:53.591Z,3.63
2022-09-12T20:24:57.414Z,3.50
2022-09-12T20:28:03.157Z,3.60
2022-09-12T20:31:12.400Z,4.00
2022-09-12T20:34:18.968Z,4.17
2022-09-12T20:37:22.839Z,4.13
2022-09-12T20:40:26.524Z,3.97
2022-09-12T20:43:31.697Z,4.07
2022-09-12T20:46:35.574Z,4.37
2022-09-12T20:49:39.320Z,4.30
2022-09-12T20:52:42.966Z,4.00
2022-09-12T20:55:51.648Z,3.90
2022-09-12T20:58:57.414Z,3.70
2022-09-12T21:02:01.295Z,3.40
2022-09-12T21:05:05.521Z,3.33
2022-09-12T21:08:09.194Z,3.13
2022-09-12T21:11:13.103Z,3.40
2022-09-12T21:14:18.088Z,3.40
2022-09-12T21:17:21.783Z,3.80
2022-09-12T21:20:25.367Z,3.40
2022-09-12T21:23:31.014Z,3.97
2022-09-12T21:26:34.729Z,3.37
2022-09-12T21:29:39.681Z,3.57
2022-09-12T21:32:43.319Z,3.70
2022-09-12T21:35:47.121Z,3.07
2022-09-12T21:38:50.680Z,3.40
2022-09-12T21:41:54.368Z,3.30
2022-09-12T21:44:59.439Z,3.10
2022-09-12T21:48:03.875Z,3.37
2022-09-12T21:51:08.186Z,3.40
2022-09-12T21:54:11.870Z,3.00
2022-09-12T21:57:15.503Z,3.23
2022-09-12T22:00:20.547Z,3.50
2022-09-12T22:03:24.341Z,3.30
2022-09-12T22:06:28.082Z,3.33
2022-09-12T22:09:31.625Z,3.53
2022-09-12T22:12:35.121Z,3.37
2022-09-12T22:15:41.220Z,3.63
2022-09-12T22:18:46.596Z,3.50
2022-09-12T22:22:07.288Z,3.53
2022-09-12T22:25:11.950Z,3.67
2022-09-12T22:28:16.041Z,3.33
2022-09-12T22:31:21.657Z,3.53
2022-09-12T22:34:25.731Z,3.80
2022-09-12T22:37:29.264Z,3.00
2022-09-12T22:40:33.319Z,3.37
2022-09-12T22:43:37.584Z,3.40
2022-09-12T22:46:42.609Z,3.30
2022-09-12T22:49:47.723Z,3.60
2022-09-12T22:52:55.396Z,3.43
2022-09-12T22:55:59.127Z,3.93
2022-09-12T22:59:02.877Z,3.57
2022-09-12T23:02:08.507Z,3.30
2022-09-12T23:05:12.415Z,3.10
2022-09-12T23:08:16.931Z,3.53
2022-09-12T23:11:22.260Z,3.50
2022-09-12T23:14:25.924Z,3.30
2022-09-12T23:17:30.955Z,3.60
2022-09-12T23:20:34.510Z,3.40
2022-09-12T23:23:38.995Z,3.97
2022-09-12T23:26:42.939Z,4.00
2022-09-12T23:29:46.598Z,3.63
2022-09-12T23:32:51.792Z,3.40
2022-09-12T23:36:00.315Z,3.83
2022-09-12T23:39:04.290Z,3.60
2022-09-12T23:42:08.113Z,4.10
2022-09-12T23:45:12.594Z,3.63
2022-09-12T23:48:18.573Z,3.43
2022-09-12T23:51:22.838Z,4.23
2022-09-12T23:54:26.558Z,3.50
2022-09-12T23:57:30.122Z,3.43
